Time;durP1;ratioP1;P1;durP2;ratioP2;P2;SDS_P1;SDS_P2;PMS_P1;PMS_P2;Temp;Humidity;BMP_temperature;BMP_pressure;BME280_temperature;BME280_humidity;BME280_pressure;Samples;Min_cycle;Max_cycle;Signal;HPM_P1;HPM_P2
2022/06/21 00:02:25;;;;;;;4.15;2.75;;;;;;;19.25;75.32;94158.75;5074427;28;20723;-61
2022/06/21 00:04:51;;;;;;;3.33;2.63;;;;;;;19.13;75.86;94151.78;5073626;28;20203;-61
2022/06/21 00:07:28;;;;;;;3.55;2.55;;;;;;;19.10;74.68;94167.66;5074135;28;20630;-61
2022/06/21 00:09:54;;;;;;;4.30;2.45;;;;;;;19.00;74.01;94182.66;5073590;28;20296;-62
2022/06/21 00:12:20;;;;;;;4.65;2.80;;;;;;;18.85;75.42;94145.94;5074163;28;20550;-61
2022/06/21 00:14:47;;;;;;;4.82;2.22;;;;;;;18.77;77.31;94125.50;5073354;28;20201;-62
2022/06/21 00:17:19;;;;;;;2.78;2.55;;;;;;;18.75;76.43;94137.78;5055748;28;20182;-62
2022/06/21 00:19:45;;;;;;;2.90;2.55;;;;;;;18.57;77.41;94125.41;5055164;28;20576;-62
2022/06/21 00:22:16;;;;;;;3.47;2.85;;;;;;;18.47;77.34;94129.31;5073741;28;20177;-65
2022/06/21 00:24:42;;;;;;;2.70;2.13;;;;;;;18.60;77.14;94129.41;5055327;28;20580;-62
2022/06/21 00:27:19;;;;;;;3.35;2.35;;;;;;;18.78;76.62;94138.19;5055564;28;20185;-61
2022/06/21 00:29:44;;;;;;;2.85;2.38;;;;;;;18.88;76.63;94148.13;5073010;28;20209;-62
2022/06/21 00:32:16;;;;;;;2.63;2.42;;;;;;;18.81;76.99;94124.94;5055369;28;20211;-62
2022/06/21 00:34:44;;;;;;;2.50;2.30;;;;;;;18.98;76.29;94136.50;5078894;23;20193;-63
2022/06/21 00:37:15;;;;;;;4.10;2.50;;;;;;;19.06;76.11;94140.66;5072823;28;20669;-63
2022/06/21 00:39:40;;;;;;;3.10;2.85;;;;;;;19.01;76.74;94123.22;5073092;28;20262;-62
2022/06/21 00:42:36;;;;;;;6.15;2.97;;;;;;;18.94;77.26;94117.25;5071488;28;20710;-63
2022/06/21 00:45:23;;;;;;;3.30;2.58;;;;;;;18.94;77.01;94116.47;5071893;28;20303;-61
2022/06/21 00:47:52;;;;;;;4.43;2.40;;;;;;;18.96;74.63;94160.84;5072951;28;20169;-60
2022/06/21 00:50:33;;;;;;;2.60;2.10;;;;;;;18.94;74.51;94163.63;5078502;22;20231;-61
2022/06/21 00:53:13;;;;;;;4.40;2.92;;;;;;;18.80;74.64;94166.34;5072924;28;20196;-61
2022/06/21 00:55:45;;;;;;;3.53;2.38;;;;;;;18.75;73.02;94189.28;5072677;28;20751;-60
2022/06/21 00:58:14;;;;;;;3.50;2.10;;;;;;;18.55;74.81;94157.47;5071381;28;20234;-63
2022/06/21 01:00:49;;;;;;;3.75;2.30;;;;;;;18.54;73.44;94184.22;5072758;28;20193;-60
2022/06/21 01:03:30;;;;;;;3.58;2.03;;;;;;;18.47;73.32;94175.66;5072930;28;20184;-63
2022/06/21 01:06:00;;;;;;;2.35;2.10;;;;;;;18.50;72.76;94195.88;5072496;28;20582;-62
2022/06/21 01:08:32;;;;;;;3.47;2.22;;;;;;;18.42;74.02;94166.69;5072765;28;20236;-61
2022/06/21 01:11:05;;;;;;;4.88;1.90;;;;;;;18.48;72.60;94190.13;5072405;28;20220;-60
2022/06/21 01:13:33;;;;;;;3.33;2.15;;;;;;;18.42;71.79;94194.22;5072887;28;20543;-64
2022/06/21 01:15:59;;;;;;;2.30;2.10;;;;;;;18.42;73.65;94155.63;5070923;28;20205;-62
2022/06/21 01:18:26;;;;;;;2.17;1.98;;;;;;;18.44;73.50;94163.97;5072622;28;20180;-61
2022/06/21 01:20:56;;;;;;;2.92;2.10;;;;;;;18.29;73.19;94166.63;5072406;28;20287;-63
2022/06/21 01:23:47;;;;;;;2.40;2.20;;;;;;;18.13;72.48;94184.94;5072690;28;20185;-64
2022/06/21 01:26:31;;;;;;;2.72;2.53;;;;;;;17.80;75.16;94132.44;5072514;28;20193;-60
2022/06/21 01:28:59;;;;;;;2.20;2.00;;;;;;;17.63;76.56;94106.19;5072560;28;20212;-61
2022/06/21 01:31:24;;;;;;;2.35;1.95;;;;;;;17.59;77.98;94099.06;5077070;23;20233;-61
2022/06/21 01:33:50;;;;;;;2.40;2.20;;;;;;;17.56;79.82;94091.69;5071468;28;20664;-61
2022/06/21 01:36:19;;;;;;;3.47;2.17;;;;;;;17.49;81.26;94086.50;5071989;28;20281;-60
2022/06/21 01:38:49;;;;;;;2.72;2.53;;;;;;;17.37;82.37;94084.59;5071862;28;20185;-62
2022/06/21 01:41:24;;;;;;;3.72;2.08;;;;;;;17.29;83.64;94100.16;5072385;28;20201;-60
2022/06/21 01:43:54;;;;;;;2.72;2.40;;;;;;;17.09;84.90;94088.88;5072276;28;20618;-63
2022/06/21 01:46:25;;;;;;;2.65;2.28;;;;;;;17.09;85.66;94096.59;5072420;28;20236;-62
2022/06/21 01:48:55;;;;;;;2.40;2.20;;;;;;;17.03;86.07;94099.91;5072042;28;20326;-61
2022/06/21 01:51:25;;;;;;;3.42;2.55;;;;;;;17.18;85.33;94110.91;5072228;28;20566;-61
2022/06/21 01:53:52;;;;;;;2.92;2.38;;;;;;;17.18;85.17;94110.91;5071812;28;20165;-60
2022/06/21 01:56:23;;;;;;;2.63;2.40;;;;;;;17.30;84.25;94115.38;5053774;28;20364;-62
2022/06/21 01:58:56;;;;;;;3.97;2.20;;;;;;;17.32;83.17;94117.75;5072022;28;20226;-62
2022/06/21 02:01:33;;;;;;;2.40;2.10;;;;;;;17.34;82.19;94131.22;5072227;28;20227;-63
2022/06/21 02:04:02;;;;;;;3.22;2.45;;;;;;;17.26;83.17;94124.44;5071893;28;20175;-64
2022/06/21 02:06:35;;;;;;;2.88;2.35;;;;;;;17.18;83.38;94123.75;5072296;28;20193;-63
2022/06/21 02:09:06;;;;;;;6.38;1.90;;;;;;;17.22;82.78;94130.91;5071699;28;20276;-61
2022/06/21 02:11:56;;;;;;;2.80;2.28;;;;;;;17.18;82.79;94127.13;5053753;28;20642;-64
2022/06/21 02:14:30;;;;;;;2.55;2.35;;;;;;;17.19;82.83;94122.78;5053671;28;20166;-61
2022/06/21 02:17:32;;;;;;;4.00;2.47;;;;;;;17.20;83.26;94116.66;5072087;28;20185;-62
2022/06/21 02:20:05;;;;;;;2.75;2.55;;;;;;;17.15;81.18;94139.53;5053677;28;20287;-61
2022/06/21 02:22:32;;;;;;;7.95;2.28;;;;;;;17.25;79.92;94169.06;5071577;28;20222;-63
2022/06/21 02:24:58;;;;;;;3.50;2.20;;;;;;;17.20;81.12;94137.19;5071745;28;20201;-62
2022/06/21 02:27:28;;;;;;;2.97;2.10;;;;;;;17.20;81.90;94124.34;5071613;28;20180;-62
2022/06/21 02:29:56;;;;;;;2.47;2.10;;;;;;;17.31;80.13;94154.72;5071642;28;20644;-60
2022/06/21 02:32:30;;;;;;;2.38;2.17;;;;;;;17.35;80.00;94138.72;5071707;28;20638;-62
2022/06/21 02:35:04;;;;;;;5.20;2.30;;;;;;;17.52;79.17;94159.88;5071708;28;20283;-63
2022/06/21 02:37:30;;;;;;;2.78;2.58;;;;;;;17.44;80.26;94134.25;5071648;28;20190;-63
2022/06/21 02:39:59;;;;;;;3.00;2.28;;;;;;;17.52;79.81;94144.44;5071687;28;20209;-64
2022/06/21 02:42:30;;;;;;;2.90;2.60;;;;;;;17.51;78.44;94160.88;5071768;28;20205;-61
2022/06/21 02:45:15;;;;;;;3.55;2.17;;;;;;;17.56;77.94;94155.97;5080258;22;20229;-62
2022/06/21 02:47:44;;;;;;;4.88;2.60;;;;;;;17.56;77.66;94169.59;5075065;28;20181;-60
2022/06/21 02:50:15;;;;;;;6.78;2.53;;;;;;;17.48;77.68;94166.31;5080651;22;20244;-62
2022/06/21 02:52:42;;;;;;;3.05;2.75;;;;;;;17.17;79.32;94122.16;5075100;28;20173;-62
2022/06/21 02:55:13;;;;;;;5.78;2.97;;;;;;;17.54;79.61;94134.78;5053958;28;20263;-62
2022/06/21 02:57:47;;;;;;;5.13;2.33;;;;;;;17.43;79.22;94142.97;5055478;28;21097;-61
2022/06/21 03:00:16;;;;;;;3.40;2.45;;;;;;;17.47;78.94;94151.91;5056524;28;20383;-62
2022/06/21 03:02:42;;;;;;;2.55;2.35;;;;;;;17.47;78.72;94147.53;5056394;28;20201;-61
2022/06/21 03:05:16;;;;;;;2.47;2.28;;;;;;;17.57;78.71;94145.47;5054975;28;20282;-60
2022/06/21 03:07:47;;;;;;;2.58;2.35;;;;;;;17.47;77.69;94159.63;5054532;28;20692;-63
2022/06/21 03:10:20;;;;;;;3.13;2.75;;;;;;;17.55;77.52;94159.53;5054907;28;20584;-60
2022/06/21 03:12:49;;;;;;;3.70;2.75;;;;;;;17.49;78.50;94137.13;5054654;28;20177;-59
2022/06/21 03:15:15;;;;;;;6.60;2.97;;;;;;;17.59;78.73;94129.91;5054515;28;20202;-61
2022/06/21 03:17:57;;;;;;;7.45;2.97;;;;;;;17.65;78.35;94143.78;5069835;28;20264;-61
2022/06/21 03:20:22;;;;;;;3.33;2.75;;;;;;;17.77;78.52;94144.88;5054110;28;20213;-63
2022/06/21 03:22:50;;;;;;;3.40;2.90;;;;;;;17.84;78.74;94143.13;5069691;28;20319;-63
2022/06/21 03:25:23;;;;;;;5.80;3.30;;;;;;;17.88;77.72;94150.28;5054664;28;20213;-65
2022/06/21 03:27:55;;;;;;;6.93;3.50;;;;;;;17.82;79.15;94117.59;5054177;28;20219;-61
2022/06/21 03:30:26;;;;;;;4.18;3.17;;;;;;;17.88;78.53;94129.72;5054381;28;20206;-61
2022/06/21 03:32:54;;;;;;;7.03;3.40;;;;;;;17.70;79.84;94113.94;5054062;28;20178;-62
2022/06/21 03:35:20;;;;;;;4.13;2.85;;;;;;;17.74;80.47;94107.47;5054243;28;20276;-62
2022/06/21 03:37:47;;;;;;;7.55;3.28;;;;;;;17.91;81.05;94102.84;5054257;28;20173;-60
2022/06/21 03:43:14;;;;;;;8.13;3.92;;;;;;;17.78;81.69;94088.09;5053286;28;20173;-62
2022/06/21 03:45:43;;;;;;;4.00;3.55;;;;;;;17.91;81.74;94098.50;5054295;28;20296;-63
2022/06/21 03:48:25;;;;;;;5.85;3.20;;;;;;;18.00;82.01;94109.41;5053927;28;20193;-65
2022/06/21 03:51:06;;;;;;;4.63;3.40;;;;;;;18.12;82.37;94107.94;5054111;28;20221;-62
2022/06/21 03:53:40;;;;;;;8.55;3.25;;;;;;;18.04;81.42;94111.44;5053657;28;20161;-60
2022/06/21 03:56:25;;;;;;;3.17;2.88;;;;;;;18.12;82.15;94120.81;5053392;28;20201;-62
2022/06/21 03:59:19;;;;;;;4.63;3.35;;;;;;;18.19;82.13;94127.56;5053493;28;20182;-62
2022/06/21 04:01:47;;;;;;;5.30;3.25;;;;;;;18.27;81.04;94145.44;5069077;28;20247;-62
2022/06/21 04:04:43;;;;;;;8.75;3.50;;;;;;;18.30;79.89;94155.34;5053449;28;20644;-62
2022/06/21 04:07:38;;;;;;;7.53;3.40;;;;;;;18.21;81.06;94141.03;5053346;28;20196;-59
2022/06/21 04:10:06;;;;;;;4.00;2.80;;;;;;;18.47;81.15;94137.03;5053762;28;20229;-59
2022/06/21 04:12:41;;;;;;;3.92;3.20;;;;;;;18.62;80.25;94138.53;5053493;28;20178;-60
2022/06/21 04:15:09;;;;;;;6.38;3.58;;;;;;;18.55;78.75;94163.44;5053233;28;20633;-61
2022/06/21 04:17:49;;;;;;;6.07;3.80;;;;;;;18.37;80.31;94127.88;5053242;28;20186;-63
2022/06/21 04:20:26;;;;;;;6.35;3.80;;;;;;;18.34;80.33;94130.03;5053573;28;20193;-62
2022/06/21 04:22:58;;;;;;;7.50;3.83;;;;;;;18.14;81.33;94126.56;5053545;28;20169;-64
2022/06/21 04:25:26;;;;;;;7.30;3.90;;;;;;;18.12;83.30;94093.28;5053314;28;20299;-62
2022/06/21 04:28:26;;;;;;;6.00;3.53;;;;;;;18.23;83.12;94102.25;5052920;28;20178;-63
2022/06/21 04:31:14;;;;;;;6.22;4.22;;;;;;;18.51;85.98;94130.53;5016112;28;20245;-65
2022/06/21 04:33:49;;;;;;;4.82;3.70;;;;;;;18.58;88.94;94085.03;5068682;28;20209;-64
2022/06/21 04:36:24;;;;;;;5.32;3.97;;;;;;;18.65;96.02;94086.63;5069493;28;20219;-63
2022/06/21 04:39:01;;;;;;;5.97;4.32;;;;;;;18.88;90.23;94112.06;5052961;28;20249;-63
2022/06/21 04:41:37;;;;;;;5.55;3.45;;;;;;;18.77;82.88;94139.19;5053375;28;20286;-64
2022/06/21 04:44:09;;;;;;;4.07;3.08;;;;;;;18.69;84.97;94110.22;5052662;28;20227;-64
2022/06/21 04:47:04;;;;;;;5.25;2.47;;;;;;;18.72;89.30;94071.22;5052728;28;20196;-64
2022/06/21 04:50:05;;;;;;;3.95;3.13;;;;;;;18.59;81.66;94150.97;5034352;28;20236;-63
2022/06/21 04:52:50;;;;;;;6.45;3.00;;;;;;;18.52;83.75;94132.13;5018489;28;20193;-60
2022/06/21 04:55:17;;;;;;;4.68;2.90;;;;;;;18.47;81.48;94150.72;5052809;28;20272;-65
2022/06/21 04:57:46;;;;;;;8.57;3.30;;;;;;;18.50;91.73;94086.00;5052701;28;20201;-65
2022/06/21 05:00:18;;;;;;;3.33;3.03;;;;;;;18.45;85.11;94129.53;5051427;28;20237;-66
2022/06/21 05:02:54;;;;;;;6.03;3.10;;;;;;;18.61;85.85;94134.34;5052738;28;20220;-64
2022/06/21 05:05:29;;;;;;;4.43;3.35;;;;;;;18.92;86.63;94139.03;5052875;28;20211;-63
2022/06/21 05:08:01;;;;;;;4.30;2.85;;;;;;;18.94;81.27;94178.28;5052275;28;20178;-65
2022/06/21 05:10:30;;;;;;;13.60;7.15;;;;;;;18.91;91.48;94114.25;5052885;28;20205;-62
2022/06/21 05:12:59;;;;;;;4.32;3.00;;;;;;;19.15;87.28;94129.19;5052490;28;20182;-64
2022/06/21 05:15:28;;;;;;;6.20;3.80;;;;;;;19.31;85.31;94162.34;5052444;28;20202;-62
2022/06/21 05:18:00;;;;;;;5.97;3.50;;;;;;;19.65;89.74;94133.09;5052218;28;20190;-63
2022/06/21 05:20:34;;;;;;;6.25;2.97;;;;;;;19.91;83.11;94198.41;5052648;28;20197;-63
2022/06/21 05:23:04;;;;;;;4.43;3.00;;;;;;;20.09;84.03;94167.63;5052188;28;20174;-62
2022/06/21 05:25:36;;;;;;;6.72;3.00;;;;;;;20.14;83.83;94161.06;5051934;28;20233;-66
2022/06/21 05:28:16;;;;;;;4.43;3.70;;;;;;;20.46;83.30;94186.09;5051995;28;20627;-62
2022/06/21 05:31:03;;;;;;;7.65;4.32;;;;;;;20.73;78.24;94252.19;5067596;23;20227;-63
2022/06/21 05:33:33;;;;;;;7.65;4.65;;;;;;;20.82;77.31;94243.25;5072176;28;20195;-63
2022/06/21 05:36:06;;;;;;;9.20;4.47;;;;;;;21.06;77.80;94236.66;5072466;28;20228;-61
2022/06/21 05:38:32;;;;;;;8.13;4.50;;;;;;;21.07;73.84;94288.13;5071949;28;20605;-65
2022/06/21 05:41:03;;;;;;;6.88;4.63;;;;;;;20.72;75.75;94233.34;5072123;28;20201;-64
2022/06/21 05:43:45;;;;;;;6.30;4.18;;;;;;;20.63;81.22;94154.44;5072302;28;20579;-61
2022/06/21 05:46:22;;;;;;;4.28;3.75;;;;;;;20.91;78.40;94205.84;5072283;28;20209;-63
2022/06/21 05:48:48;;;;;;;8.55;3.92;;;;;;;20.83;73.54;94281.00;5071269;28;20196;-65
2022/06/21 05:51:19;;;;;;;5.53;4.38;;;;;;;20.40;74.31;94251.44;5072446;28;20201;-65
2022/06/21 05:53:52;;;;;;;6.30;4.57;;;;;;;20.54;80.14;94160.03;5053814;28;20708;-60
2022/06/21 05:56:21;;;;;;;6.90;4.43;;;;;;;20.96;82.75;94145.78;5054063;28;20216;-60
2022/06/21 05:58:55;;;;;;;5.30;3.80;;;;;;;21.35;83.14;94161.94;5053858;28;20180;-62
2022/06/21 06:01:56;;;;;;;8.20;3.95;;;;;;;21.69;72.74;94301.25;5072290;28;20215;-66
2022/06/21 06:04:21;;;;;;;8.00;4.90;;;;;;;21.44;72.15;94278.88;5046737;28;20197;-60
2022/06/21 06:06:47;;;;;;;8.18;4.35;;;;;;;21.15;79.92;94125.03;5071836;28;20177;-60
2022/06/21 06:09:22;;;;;;;9.50;4.53;;;;;;;21.34;76.92;94216.44;5071658;28;20231;-64
2022/06/21 06:11:59;;;;;;;9.10;4.93;;;;;;;21.22;73.95;94244.75;5072203;28;20168;-59
2022/06/21 06:14:31;;;;;;;11.27;4.78;;;;;;;21.07;76.21;94197.66;5071500;28;20223;-62
2022/06/21 06:17:00;;;;;;;5.45;4.10;;;;;;;21.11;81.76;94131.63;5076807;23;20261;-63
2022/06/21 06:19:36;;;;;;;6.85;4.97;;;;;;;21.27;79.38;94169.94;5072374;28;20231;-63
2022/06/21 06:22:05;;;;;;;11.05;5.03;;;;;;;21.61;78.37;94190.22;5075660;28;20191;-65
2022/06/21 06:24:41;;;;;;;8.50;5.07;;;;;;;21.87;76.69;94211.81;5075564;28;20200;-65
2022/06/21 06:27:26;;;;;;;6.80;5.20;;;;;;;22.10;73.69;94259.44;5075393;28;20591;-66
2022/06/21 06:29:56;;;;;;;15.00;6.00;;;;;;;22.13;74.67;94234.94;5075328;28;20240;-63
2022/06/21 06:32:29;;;;;;;13.65;6.40;;;;;;;22.28;74.25;94250.97;5075724;28;20550;-64
2022/06/21 06:34:55;;;;;;;7.85;4.50;;;;;;;22.48;73.30;94267.16;5074091;28;20209;-62
2022/06/21 06:37:33;;;;;;;8.48;6.15;;;;;;;22.49;71.54;94290.25;5075487;28;20691;-64
2022/06/21 06:40:01;;;;;;;10.30;6.97;;;;;;;22.22;70.95;94294.03;5075406;28;20742;-66
2022/06/21 06:42:34;;;;;;;12.50;5.85;;;;;;;22.15;72.30;94248.47;5073824;28;20204;-61
2022/06/21 06:45:06;;;;;;;7.35;5.75;;;;;;;22.29;72.00;94257.72;5075468;28;20242;-63
2022/06/21 06:47:36;;;;;;;10.20;7.00;;;;;;;22.37;72.36;94266.03;5075046;28;20169;-65
2022/06/21 06:50:17;;;;;;;13.57;5.57;;;;;;;22.56;73.24;94241.75;5080731;22;20225;-64
2022/06/21 06:52:48;;;;;;;10.27;6.78;;;;;;;22.60;71.31;94275.84;5074937;28;20165;-63
2022/06/21 06:55:32;;;;;;;10.50;7.20;;;;;;;22.65;69.11;94320.06;5080169;23;20232;-66
2022/06/21 06:58:05;;;;;;;11.23;7.28;;;;;;;22.54;70.50;94280.03;5074778;28;20169;-60
2022/06/21 07:00:38;;;;;;;12.15;9.38;;;;;;;22.25;68.87;94298.00;5075006;28;20205;-62
2022/06/21 07:03:11;;;;;;;10.32;8.02;;;;;;;22.37;69.57;94270.41;5074937;28;20181;-63
2022/06/21 07:05:47;;;;;;;11.98;7.00;;;;;;;22.37;70.84;94250.50;5075016;28;20200;-62
2022/06/21 07:08:39;;;;;;;12.18;7.57;;;;;;;22.44;71.08;94258.22;5074683;28;20279;-63
2022/06/21 07:11:17;;;;;;;22.73;15.10;;;;;;;22.58;71.76;94226.03;5075043;28;20568;-62
2022/06/21 07:13:43;;;;;;;7.38;6.60;;;;;;;22.71;72.00;94235.47;5074868;28;20208;-65
2022/06/21 07:16:14;;;;;;;10.85;7.75;;;;;;;22.96;72.55;94211.09;5074721;28;20205;-62
2022/06/21 07:18:49;;;;;;;14.32;8.00;;;;;;;23.07;71.83;94236.28;5074329;28;20561;-65
2022/06/21 07:21:16;;;;;;;7.80;5.97;;;;;;;23.13;70.32;94257.97;5074752;28;20717;-65
2022/06/21 07:23:43;;;;;;;10.15;6.15;;;;;;;22.95;68.31;94295.06;5074210;28;20216;-65
2022/06/21 07:26:19;;;;;;;10.20;5.38;;;;;;;23.16;71.15;94234.22;5074643;28;20227;-62
2022/06/21 07:29:19;;;;;;;8.10;6.10;;;;;;;23.21;68.12;94289.63;5056276;28;20196;-62
2022/06/21 07:31:59;;;;;;;8.82;5.50;;;;;;;23.46;70.04;94255.84;5020980;28;20584;-62
2022/06/21 07:34:42;;;;;;;10.15;5.25;;;;;;;23.67;70.08;94257.19;5074051;28;20295;-61
2022/06/21 07:37:12;;;;;;;11.93;5.90;;;;;;;23.79;70.63;94250.22;5074425;28;20169;-61
2022/06/21 07:40:02;;;;;;;9.38;4.88;;;;;;;23.90;68.72;94291.03;5073841;28;20240;-62
2022/06/21 07:42:41;;;;;;;8.60;6.35;;;;;;;23.92;67.85;94299.38;5055911;28;20181;-63
2022/06/21 07:45:34;;;;;;;8.27;4.65;;;;;;;24.00;69.90;94262.72;5056062;28;20204;-65
2022/06/21 07:48:24;;;;;;;8.55;5.15;;;;;;;24.01;69.09;94264.31;5047030;28;20259;-59
2022/06/21 07:50:57;;;;;;;10.20;5.22;;;;;;;23.87;66.85;94318.25;5074073;28;20200;-60
2022/06/21 07:53:28;;;;;;;6.15;5.00;;;;;;;24.07;68.68;94290.22;5074082;28;20169;-60
2022/06/21 07:56:08;;;;;;;6.32;4.35;;;;;;;24.21;69.29;94266.66;5073950;28;20615;-61
2022/06/21 07:58:41;;;;;;;15.02;5.80;;;;;;;24.24;69.13;94285.19;5040992;28;20667;-61
2022/06/21 08:07:11;;;;;;;9.90;5.25;;;;;;;24.52;69.08;94292.38;5073574;28;20707;-61
2022/06/21 08:09:51;;;;;;;5.45;4.55;;;;;;;24.57;64.73;94373.06;5073386;28;20282;-66
2022/06/21 08:12:17;;;;;;;8.45;4.80;;;;;;;24.74;64.93;94371.47;5073361;28;20259;-63
2022/06/21 08:14:42;;;;;;;8.73;4.82;;;;;;;24.83;63.35;94399.50;5055401;28;20197;-60
2022/06/21 08:17:25;;;;;;;5.95;5.05;;;;;;;24.97;62.74;94403.50;5055211;28;20664;-63
2022/06/21 08:20:07;;;;;;;9.23;4.88;;;;;;;24.98;63.91;94365.28;5055527;28;20239;-61
2022/06/21 08:22:50;;;;;;;5.55;4.50;;;;;;;25.12;64.42;94348.44;5073379;28;20256;-60
2022/06/21 08:25:22;;;;;;;9.13;5.10;;;;;;;25.29;63.11;94382.38;5073279;28;20212;-60
2022/06/21 08:28:07;;;;;;;11.82;5.30;;;;;;;25.37;63.77;94366.44;5055127;28;20189;-60
2022/06/21 08:30:50;;;;;;;12.82;6.00;;;;;;;25.42;63.39;94387.38;5073287;28;20209;-64
2022/06/21 08:33:21;;;;;;;13.90;6.25;;;;;;;25.31;63.44;94380.34;5073055;28;20173;-66
2022/06/21 08:36:05;;;;;;;10.95;6.18;;;;;;;25.19;63.51;94376.94;5073081;28;20209;-61
2022/06/21 08:38:59;;;;;;;7.25;5.80;;;;;;;25.20;64.81;94339.47;5072734;28;20169;-64
2022/06/21 08:42:02;;;;;;;11.18;6.07;;;;;;;25.36;63.92;94357.00;5054391;28;20693;-62
2022/06/21 08:48:04;;;;;;;9.00;5.88;;;;;;;25.44;64.40;94354.09;5072950;28;20184;-64
2022/06/21 08:50:51;;;;;;;12.35;6.28;;;;;;;25.33;65.20;94321.03;5072898;28;20219;-63
2022/06/21 08:53:22;;;;;;;11.32;6.50;;;;;;;25.34;64.96;94317.41;5054872;28;20751;-61
2022/06/21 08:56:02;;;;;;;15.82;6.78;;;;;;;25.44;66.13;94302.03;5072878;28;20224;-64
2022/06/21 08:58:50;;;;;;;9.07;5.70;;;;;;;25.54;65.45;94317.84;5072539;28;20165;-61
2022/06/21 09:01:47;;;;;;;14.40;6.90;;;;;;;25.62;65.41;94325.31;5026937;28;20664;-63
2022/06/21 09:04:24;;;;;;;9.32;6.43;;;;;;;25.57;65.07;94320.00;5072459;28;20161;-62
2022/06/21 09:07:12;;;;;;;14.27;6.65;;;;;;;25.59;65.69;94302.34;5072505;28;20542;-62
2022/06/21 09:10:03;;;;;;;9.52;6.30;;;;;;;25.69;66.11;94294.75;5072150;28;20224;-71
2022/06/21 09:12:37;;;;;;;9.10;6.25;;;;;;;25.62;66.03;94281.03;5072452;28;20169;-64
2022/06/21 09:15:02;;;;;;;12.20;7.30;;;;;;;25.70;65.55;94302.31;5072646;28;20209;-65
2022/06/21 09:17:58;;;;;;;14.48;7.15;;;;;;;25.73;65.61;94299.22;5072289;28;20173;-65
2022/06/21 09:20:43;;;;;;;17.15;7.22;;;;;;;25.99;65.42;94286.69;5037844;28;20243;-65
2022/06/21 09:23:28;;;;;;;12.82;7.30;;;;;;;26.25;64.45;94309.59;5072311;28;20714;-63
2022/06/21 09:26:07;;;;;;;11.00;6.35;;;;;;;26.58;63.38;94333.13;5054021;28;20303;-60
2022/06/21 09:28:41;;;;;;;12.52;7.20;;;;;;;26.66;63.18;94345.78;5071895;28;20235;-63
2022/06/21 09:31:38;;;;;;;13.20;7.10;;;;;;;26.52;62.93;94332.25;5053891;28;20312;-61
2022/06/21 09:34:14;;;;;;;7.90;7.10;;;;;;;26.46;63.38;94327.97;5071879;28;20226;-59
2022/06/21 09:36:39;;;;;;;10.43;7.00;;;;;;;26.55;63.07;94331.78;5072088;28;20666;-62
2022/06/21 09:39:40;;;;;;;11.38;7.53;;;;;;;26.79;62.56;94335.06;5053597;28;20172;-62
2022/06/21 09:42:39;;;;;;;10.65;7.05;;;;;;;26.93;60.68;94353.78;5071911;28;20515;-60
2022/06/21 09:45:23;;;;;;;9.10;7.15;;;;;;;27.12;61.52;94352.53;5072108;28;20231;-62
2022/06/21 09:48:12;;;;;;;13.07;6.60;;;;;;;27.11;61.86;94325.63;5071757;28;20222;-59
2022/06/21 09:51:02;;;;;;;9.15;6.25;;;;;;;27.19;61.39;94327.84;5071781;28;20370;-59
2022/06/21 09:53:54;;;;;;;6.80;6.05;;;;;;;26.94;61.01;94343.16;5071366;28;20248;-62
2022/06/21 09:56:38;;;;;;;9.68;7.35;;;;;;;27.03;61.60;94313.00;5025969;28;20228;-59
2022/06/21 09:59:15;;;;;;;13.68;7.43;;;;;;;27.14;62.25;94306.09;5053612;28;20184;-62
2022/06/21 10:02:11;;;;;;;13.23;7.38;;;;;;;27.11;61.31;94311.81;5071919;28;20201;-62
2022/06/21 10:04:50;;;;;;;9.95;6.50;;;;;;;27.34;61.34;94329.91;5071664;28;20210;-60
2022/06/21 10:07:32;;;;;;;13.02;6.95;;;;;;;27.24;61.33;94317.47;5071809;28;20180;-59
2022/06/21 10:10:25;;;;;;;9.65;6.97;;;;;;;27.37;60.86;94330.22;5071787;28;20220;-59
2022/06/21 10:13:08;;;;;;;11.60;7.25;;;;;;;27.47;60.78;94336.63;5071733;28;20291;-59
2022/06/21 10:15:47;;;;;;;8.18;7.00;;;;;;;27.31;60.44;94331.16;5071661;28;20207;-60
2022/06/21 10:18:34;;;;;;;10.40;6.82;;;;;;;27.65;59.02;94367.69;5053537;28;20173;-59
2022/06/21 10:21:09;;;;;;;11.02;7.65;;;;;;;27.46;58.56;94375.00;5053652;28;20208;-61
2022/06/21 10:24:19;;;;;;;9.88;7.95;;;;;;;27.52;59.49;94350.53;5071589;28;20280;-61
2022/06/21 10:27:06;;;;;;;12.52;7.25;;;;;;;27.61;58.34;94382.25;5048046;28;20197;-62
2022/06/21 10:29:35;;;;;;;11.13;6.80;;;;;;;27.89;58.73;94369.84;5071325;28;20217;-61
2022/06/21 10:32:06;;;;;;;8.23;6.95;;;;;;;27.84;58.54;94377.59;5071777;28;20181;-59
2022/06/21 10:34:56;;;;;;;7.55;6.43;;;;;;;27.90;58.15;94371.41;5071415;28;20201;-62
2022/06/21 10:37:37;;;;;;;6.82;5.93;;;;;;;28.06;55.92;94433.31;5071476;28;20664;-61
2022/06/21 10:40:26;;;;;;;9.98;6.25;;;;;;;28.44;57.39;94389.81;5071299;28;20209;-60
2022/06/21 10:43:01;;;;;;;7.65;6.43;;;;;;;28.41;57.37;94377.22;5071590;28;20192;-58
2022/06/21 10:46:00;;;;;;;11.63;6.57;;;;;;;27.82;57.50;94374.44;5071564;28;20204;-58
2022/06/21 10:48:47;;;;;;;7.97;6.43;;;;;;;28.06;58.45;94354.09;5038197;28;20221;-58
2022/06/21 10:51:34;;;;;;;8.93;6.40;;;;;;;28.04;56.37;94398.78;5071359;28;20201;-59
2022/06/21 10:54:24;;;;;;;6.93;6.10;;;;;;;28.33;56.36;94401.19;5070870;28;20170;-60
2022/06/21 10:57:43;;;;;;;7.30;6.05;;;;;;;28.33;57.56;94369.81;5053373;28;20231;-62
2022/06/21 11:03:21;;;;;;;8.90;5.88;;;;;;;28.55;56.80;94370.56;5071533;28;20203;-59
2022/06/21 11:06:15;;;;;;;8.38;6.40;;;;;;;28.76;56.05;94406.41;5074132;28;20746;-63
2022/06/21 11:09:06;;;;;;;8.10;5.97;;;;;;;28.57;55.80;94385.00;5075084;28;20593;-60
2022/06/21 11:11:52;;;;;;;7.38;6.53;;;;;;;28.69;56.00;94392.72;5074280;28;20188;-61
2022/06/21 11:14:37;;;;;;;8.27;6.43;;;;;;;28.70;55.92;94392.47;5074548;28;20650;-62
2022/06/21 11:17:11;;;;;;;8.30;7.10;;;;;;;29.01;55.52;94394.31;5074367;28;20172;-60
2022/06/21 11:19:52;;;;;;;9.63;6.30;;;;;;;29.61;53.31;94456.09;5074458;28;20295;-60
2022/06/21 11:22:36;;;;;;;10.77;6.85;;;;;;;30.15;54.82;94396.38;5074860;28;20219;-62
2022/06/21 11:25:20;;;;;;;7.95;6.43;;;;;;;30.31;52.85;94424.28;5056932;28;20358;-59
2022/06/21 11:27:57;;;;;;;7.50;6.65;;;;;;;29.73;53.12;94407.72;5074362;28;20169;-63
2022/06/21 11:30:42;;;;;;;8.63;6.90;;;;;;;29.62;53.78;94395.56;5056482;28;20232;-63
2022/06/21 11:33:26;;;;;;;12.23;7.30;;;;;;;29.57;53.57;94389.50;5073986;28;20177;-59
2022/06/21 11:36:11;;;;;;;12.55;6.90;;;;;;;29.53;54.65;94349.91;5074494;28;20557;-60
2022/06/21 11:39:16;;;;;;;10.32;7.65;;;;;;;29.79;54.98;94359.53;5040748;28;20183;-63
2022/06/21 11:42:08;;;;;;;8.38;6.93;;;;;;;29.66;53.36;94404.50;5073991;28;20262;-60
2022/06/21 11:44:59;;;;;;;10.05;7.28;;;;;;;29.40;55.08;94363.47;5073751;28;20232;-62
2022/06/21 11:47:30;;;;;;;7.72;6.97;;;;;;;29.45;54.88;94358.25;5073839;28;20165;-64
2022/06/21 11:50:27;;;;;;;9.50;6.60;;;;;;;29.87;53.46;94384.47;5073680;28;20309;-64
2022/06/21 11:53:26;;;;;;;9.30;6.95;;;;;;;30.22;51.67;94425.78;5055566;28;20185;-60
2022/06/21 11:56:12;;;;;;;10.50;6.88;;;;;;;30.26;50.94;94446.00;5073806;28;20639;-62
2022/06/21 11:58:42;;;;;;;10.82;6.95;;;;;;;29.85;51.73;94404.91;5073609;28;20172;-59
2022/06/21 12:01:27;;;;;;;9.23;7.05;;;;;;;29.76;52.29;94386.22;5074269;28;20205;-62
2022/06/21 12:04:05;;;;;;;8.93;7.05;;;;;;;29.65;51.77;94405.56;5055511;28;20169;-59
2022/06/21 12:06:36;;;;;;;11.63;6.28;;;;;;;29.56;52.40;94365.13;5073641;28;20177;-63
2022/06/21 12:09:11;;;;;;;9.95;7.18;;;;;;;29.91;51.76;94401.25;5073584;28;20201;-59
2022/06/21 12:12:05;;;;;;;10.18;7.10;;;;;;;29.05;53.62;94329.94;5073497;28;20260;-60
2022/06/21 12:14:52;;;;;;;8.80;6.70;;;;;;;29.13;53.52;94336.53;5073358;28;20228;-61
2022/06/21 12:17:21;;;;;;;7.95;7.10;;;;;;;29.41;54.49;94325.72;5072335;28;20176;-63
2022/06/21 12:19:52;;;;;;;11.50;7.07;;;;;;;29.81;53.36;94352.19;5055120;28;20258;-59
2022/06/21 12:22:37;;;;;;;12.35;6.88;;;;;;;29.44;54.37;94325.22;5073328;28;20487;-62
2022/06/21 12:25:03;;;;;;;8.05;6.90;;;;;;;29.59;54.39;94314.81;5073003;28;20232;-60
2022/06/21 12:27:29;;;;;;;7.97;6.65;;;;;;;29.88;52.62;94357.19;5072956;28;20668;-60
2022/06/21 12:30:06;;;;;;;7.72;6.43;;;;;;;30.19;51.68;94392.19;5072997;28;20244;-60
2022/06/21 12:32:32;;;;;;;9.95;6.13;;;;;;;30.14;50.87;94381.69;5072795;28;20165;-59
2022/06/21 12:35:07;;;;;;;10.57;6.80;;;;;;;29.98;52.18;94349.34;5072949;28;20201;-59